Terminal Aerodrome Forecast
Issued by NWS

Home | Current Version | Previous Version | Text Only | Print | Product List | Glossary Off
Versions: 1 2 3 4 5 6 7 8 9 10 11 12 13 14 15 16 17 18 19 20 21 22 23 24 25 26 27

000
FTUS43 KICT 261135
TAFHUT
TAF
KHUT 261135Z 2612/2712 11008KT P6SM SCT025 BKN040
     FM261600 17014G21KT P6SM SCT015
     FM262100 15018G26KT P6SM VCTS BKN040CB
     FM262300 16018KT P6SM -SHRA VCTS SCT040 BKN080CB
      TEMPO 2623/2702 VRB35G45KT 2SM TSRA BR BKN040CB
     FM270600 16014KT P6SM VCSH BKN060=

USA.gov is the U.S. government's official web portal to all federal, state and local government web resources and services.